Time;durP1;ratioP1;P1;durP2;ratioP2;P2;SDS_P1;SDS_P2;PMS_P1;PMS_P2;Temp;Humidity;BMP_temperature;BMP_pressure;BME280_temperature;BME280_humidity;BME280_pressure;Samples;Min_cycle;Max_cycle;Signal;HPM_P1;HPM_P2
2023/05/05 00:01:21;;;;;;;10.30;5.57;;;10.60;99.90;;;;;;5062927;28;20037;-48
2023/05/05 00:03:47;;;;;;;11.27;5.82;;;10.50;99.90;;;;;;5059701;28;20044;-48
2023/05/05 00:06:14;;;;;;;10.77;5.28;;;10.40;99.90;;;;;;5050577;28;20044;-47
2023/05/05 00:08:41;;;;;;;8.30;5.57;;;10.40;99.90;;;;;;5065020;28;20044;-47
2023/05/05 00:11:08;;;;;;;9.95;4.80;;;10.40;99.90;;;;;;5070898;28;20483;-47
2023/05/05 00:13:35;;;;;;;9.52;4.63;;;10.50;99.90;;;;;;5053570;28;20056;-47
2023/05/05 00:16:02;;;;;;;8.57;5.10;;;10.60;99.90;;;;;;5062464;28;20090;-47
2023/05/05 00:18:29;;;;;;;10.82;5.57;;;10.70;99.90;;;;;;5071318;28;20074;-48
2023/05/05 00:20:55;;;;;;;7.88;4.30;;;10.70;99.90;;;;;;5058321;28;20041;-48
2023/05/05 00:23:22;;;;;;;7.28;4.88;;;10.70;99.90;;;;;;5051878;28;20091;-47
2023/05/05 00:25:49;;;;;;;8.93;5.53;;;10.70;99.90;;;;;;5049350;28;20044;-47
2023/05/05 00:28:16;;;;;;;7.80;4.93;;;10.70;99.90;;;;;;5051746;28;20049;-49
2023/05/05 00:30:43;;;;;;;7.90;4.78;;;10.70;99.90;;;;;;5050953;28;20091;-48
2023/05/05 00:33:11;;;;;;;8.15;5.20;;;10.80;99.90;;;;;;5057989;28;20102;-48
2023/05/05 00:35:37;;;;;;;;;;;10.70;99.90;;;;;;5051581;28;20080;-48
2023/05/05 00:38:05;;;;;;;9.32;5.25;;;10.80;99.90;;;;;;5038590;28;20008;-49
2023/05/05 00:40:32;;;;;;;8.77;5.32;;;10.80;99.90;;;;;;5049650;28;20444;-50
2023/05/05 00:42:59;;;;;;;7.10;5.20;;;10.80;99.90;;;;;;5063302;28;20041;-47
2023/05/05 00:45:26;;;;;;;7.88;4.95;;;10.70;99.90;;;;;;5052471;28;20045;-49
2023/05/05 00:47:56;;;;;;;8.60;4.60;;;10.70;99.90;;;;;;5061975;28;20072;-47
2023/05/05 00:50:23;;;;;;;7.30;4.75;;;10.70;99.90;;;;;;5070805;28;20135;-48
2023/05/05 00:52:53;;;;;;;9.40;5.18;;;10.70;99.90;;;;;;5062477;28;20048;-47
2023/05/05 00:55:20;;;;;;;7.60;4.95;;;10.60;99.90;;;;;;5044928;28;20067;-48
2023/05/05 00:57:48;;;;;;;;;;;10.60;99.90;;;;;;5070660;28;20044;-47
2023/05/05 01:00:15;;;;;;;8.80;5.82;;;10.60;99.90;;;;;;5070654;28;20009;-47
2023/05/05 01:02:43;;;;;;;;;;;10.60;99.90;;;;;;5059709;28;20059;-47
2023/05/05 01:05:12;;;;;;;8.52;5.15;;;10.50;99.90;;;;;;5069091;28;19920;-47
2023/05/05 01:08:06;;;;;;;9.98;4.65;;;10.50;99.90;;;;;;5052143;28;20048;-47
2023/05/05 01:10:53;;;;;;;6.82;5.00;;;10.30;99.90;;;;;;5048650;28;20045;-47
2023/05/05 01:13:23;;;;;;;7.05;4.95;;;10.20;99.90;;;;;;5050154;28;20493;-47
2023/05/05 01:16:05;;;;;;;7.03;5.07;;;10.00;99.90;;;;;;5046675;28;20037;-48
2023/05/05 01:19:03;;;;;;;10.13;5.10;;;10.00;99.90;;;;;;5049254;28;20094;-47
2023/05/05 01:21:36;;;;;;;10.70;5.05;;;9.90;99.90;;;;;;5043711;28;20405;-48
2023/05/05 01:24:27;;;;;;;11.13;5.25;;;9.90;99.90;;;;;;5061016;28;20048;-47
2023/05/05 01:27:15;;;;;;;8.48;4.85;;;9.90;99.90;;;;;;5049740;28;20045;-48
2023/05/05 01:29:48;;;;;;;12.10;5.45;;;9.80;99.90;;;;;;5049759;28;20048;-48
2023/05/05 01:32:20;;;;;;;8.93;5.03;;;9.70;99.90;;;;;;5065828;28;20075;-48
2023/05/05 01:34:52;;;;;;;9.10;5.30;;;9.70;99.90;;;;;;5049972;28;20397;-47
2023/05/05 01:37:23;;;;;;;8.10;5.40;;;9.70;99.90;;;;;;5049382;28;20041;-47
2023/05/05 01:39:54;;;;;;;8.60;4.90;;;9.70;99.90;;;;;;5049343;28;20037;-47
2023/05/05 01:42:22;;;;;;;10.30;5.80;;;9.70;99.90;;;;;;5050744;28;20048;-48
2023/05/05 01:44:51;;;;;;;9.55;4.68;;;9.70;99.90;;;;;;5058137;28;20064;-46
2023/05/05 01:47:20;;;;;;;9.77;5.38;;;9.70;99.90;;;;;;5050863;28;20049;-47
2023/05/05 01:49:48;;;;;;;8.18;5.10;;;9.60;99.90;;;;;;5048587;28;20448;-46
2023/05/05 01:52:17;;;;;;;9.82;5.55;;;9.60;99.90;;;;;;5050269;28;20037;-47
2023/05/05 01:54:45;;;;;;;10.50;5.35;;;9.50;99.90;;;;;;5050757;28;20578;-47
2023/05/05 01:57:13;;;;;;;9.52;4.93;;;9.50;99.90;;;;;;5050928;28;20098;-47
2023/05/05 01:59:41;;;;;;;6.95;4.95;;;9.50;99.90;;;;;;5046039;28;20555;-50
2023/05/05 02:02:10;;;;;;;10.07;5.25;;;9.50;99.90;;;;;;5052624;28;20044;-47
2023/05/05 02:04:41;;;;;;;8.48;4.78;;;9.50;99.90;;;;;;5049590;28;20037;-47
2023/05/05 02:07:11;;;;;;;7.40;4.72;;;9.50;99.90;;;;;;5069099;28;20055;-47
2023/05/05 02:09:39;;;;;;;7.70;5.03;;;9.50;99.90;;;;;;5068333;28;20385;-47
2023/05/05 02:12:07;;;;;;;7.22;5.30;;;9.40;99.90;;;;;;5067815;28;20045;-47
2023/05/05 02:14:34;;;;;;;8.88;5.43;;;9.30;99.90;;;;;;5047525;28;20049;-47
2023/05/05 02:17:02;;;;;;;9.73;5.20;;;9.30;99.90;;;;;;5051734;28;20044;-48
2023/05/05 02:19:35;;;;;;;9.48;5.15;;;9.30;99.90;;;;;;5051756;28;20117;-47
2023/05/05 02:22:01;;;;;;;7.22;5.45;;;9.30;99.90;;;;;;5044999;28;20044;-47
2023/05/05 02:24:28;;;;;;;10.68;6.13;;;9.30;99.90;;;;;;5056172;28;20444;-47
2023/05/05 02:26:57;;;;;;;9.82;5.78;;;9.30;99.90;;;;;;5053561;28;20583;-49
2023/05/05 02:29:49;;;;;;;6.00;4.78;;;9.30;99.90;;;;;;5073274;28;20056;-48
2023/05/05 02:32:21;;;;;;;14.48;5.90;;;9.30;99.90;;;;;;5060158;28;20427;-47
2023/05/05 02:34:51;;;;;;;7.38;5.10;;;9.40;99.90;;;;;;5045124;28;20064;-47
2023/05/05 02:37:22;;;;;;;7.38;5.10;;;9.30;99.90;;;;;;5035366;28;20041;-49
2023/05/05 02:39:59;;;;;;;8.43;5.22;;;9.30;99.90;;;;;;5051492;28;20721;-48
2023/05/05 02:42:33;;;;;;;9.35;5.30;;;9.30;99.90;;;;;;5052607;28;20033;-47
2023/05/05 02:45:08;;;;;;;7.53;5.07;;;9.20;99.90;;;;;;5052261;28;20528;-47
2023/05/05 02:47:38;;;;;;;10.70;5.78;;;9.30;99.90;;;;;;5054997;28;20090;-47
2023/05/05 02:50:06;;;;;;;8.40;5.18;;;9.20;99.90;;;;;;5036796;28;20070;-46
2023/05/05 02:52:35;;;;;;;9.02;5.15;;;9.20;99.90;;;;;;5060968;28;20575;-47
2023/05/05 02:55:04;;;;;;;9.20;5.47;;;9.10;99.90;;;;;;5083161;22;20044;-47
2023/05/05 02:58:03;;;;;;;8.48;5.80;;;9.10;99.90;;;;;;5053879;28;20043;-46
2023/05/05 03:00:39;;;;;;;11.85;6.43;;;9.10;99.90;;;;;;5034701;28;20091;-47
2023/05/05 03:03:16;;;;;;;12.15;6.45;;;9.10;99.90;;;;;;5051504;28;20135;-48
2023/05/05 03:05:56;;;;;;;10.02;5.82;;;9.00;99.90;;;;;;5047183;28;20045;-47
2023/05/05 03:08:29;;;;;;;11.77;6.40;;;9.00;99.90;;;;;;5049523;28;20098;-47
2023/05/05 03:11:05;;;;;;;11.52;5.72;;;8.90;99.90;;;;;;5035392;28;20041;-48
2023/05/05 03:13:38;;;;;;;8.52;5.32;;;8.90;99.90;;;;;;5034299;28;20114;-47
2023/05/05 03:16:07;;;;;;;8.35;5.25;;;8.80;99.90;;;;;;5035364;28;20064;-47
2023/05/05 03:18:39;;;;;;;9.07;5.93;;;8.80;99.90;;;;;;5029836;28;20502;-45
2023/05/05 03:21:09;;;;;;;10.60;6.10;;;8.80;99.90;;;;;;5028238;28;20033;-48
2023/05/05 03:23:38;;;;;;;10.05;5.57;;;8.80;99.90;;;;;;5033949;28;20068;-48
2023/05/05 03:26:16;;;;;;;11.40;5.70;;;8.80;99.90;;;;;;5034309;28;20053;-47
2023/05/05 03:28:43;;;;;;;12.90;5.93;;;8.80;99.90;;;;;;5033848;28;20107;-46
2023/05/05 03:31:18;;;;;;;11.98;5.88;;;8.80;99.90;;;;;;5027538;28;20045;-47
2023/05/05 03:33:49;;;;;;;10.55;6.15;;;8.80;99.90;;;;;;5030170;28;20041;-47
2023/05/05 03:36:18;;;;;;;10.13;5.97;;;8.80;99.90;;;;;;5026609;28;20091;-47
2023/05/05 03:38:45;;;;;;;9.82;6.40;;;8.80;99.90;;;;;;5018691;28;20116;-47
2023/05/05 03:41:11;;;;;;;8.48;6.00;;;8.80;99.90;;;;;;5041678;28;21464;-47
2023/05/05 03:43:38;;;;;;;8.45;5.47;;;8.80;99.90;;;;;;5029132;28;20087;-47
2023/05/05 03:46:06;;;;;;;12.10;5.47;;;8.80;99.90;;;;;;5048246;28;20060;-47
2023/05/05 03:48:33;;;;;;;9.13;5.90;;;8.80;99.90;;;;;;5026176;28;20084;-48
2023/05/05 03:51:00;;;;;;;9.70;5.25;;;8.80;99.90;;;;;;5027043;28;20069;-47
2023/05/05 03:53:29;;;;;;;10.48;4.97;;;8.80;99.90;;;;;;5040597;28;20176;-47
2023/05/05 03:55:56;;;;;;;8.27;5.53;;;8.80;99.90;;;;;;5024402;28;20497;-47
2023/05/05 03:58:23;;;;;;;10.20;5.22;;;8.90;99.90;;;;;;5018266;28;20731;-47
2023/05/05 04:00:49;;;;;;;7.43;5.47;;;8.80;99.90;;;;;;5029823;28;20033;-47
2023/05/05 04:03:18;;;;;;;7.53;5.22;;;8.80;99.90;;;;;;5032253;28;20044;-47
2023/05/05 04:05:46;;;;;;;12.13;5.20;;;8.90;99.90;;;;;;5029364;28;20051;-49
2023/05/05 04:08:13;;;;;;;11.55;5.35;;;8.90;99.90;;;;;;5033303;28;20079;-47
2023/05/05 04:10:40;;;;;;;8.77;5.65;;;8.80;99.90;;;;;;5033329;28;20099;-48
2023/05/05 04:13:07;;;;;;;10.60;6.22;;;8.80;99.90;;;;;;5040198;28;20386;-47
2023/05/05 04:15:35;;;;;;;9.55;6.10;;;8.70;99.90;;;;;;5027659;28;20070;-51
2023/05/05 04:18:01;;;;;;;15.55;5.78;;;8.70;99.90;;;;;;5051622;28;20052;-47
2023/05/05 04:20:28;;;;;;;11.00;6.00;;;8.70;99.90;;;;;;5046358;28;20042;-47
2023/05/05 04:22:55;;;;;;;9.55;5.93;;;8.80;99.90;;;;;;5025922;28;20037;-48
2023/05/05 04:25:22;;;;;;;10.40;6.35;;;8.80;99.90;;;;;;5021034;28;20038;-48
2023/05/05 04:27:49;;;;;;;10.18;5.80;;;8.90;99.90;;;;;;5032830;28;20053;-47
2023/05/05 04:30:16;;;;;;;8.25;5.40;;;9.00;99.90;;;;;;5039523;28;20428;-48
2023/05/05 04:32:44;;;;;;;;;;;9.20;99.90;;;;;;5030013;28;20060;-46
2023/05/05 04:35:10;;;;;;;11.02;5.60;;;9.30;99.90;;;;;;5047722;28;19959;-45
2023/05/05 04:37:38;;;;;;;10.75;5.65;;;9.40;99.90;;;;;;5039091;28;20064;-46
2023/05/05 04:40:06;;;;;;;10.80;5.15;;;9.60;99.90;;;;;;5025274;28;20068;-45
2023/05/05 04:42:35;;;;;;;12.20;5.45;;;9.70;99.90;;;;;;5041118;28;20076;-45
2023/05/05 04:45:03;;;;;;;8.60;5.10;;;9.70;99.90;;;;;;5049978;28;20055;-46
2023/05/05 04:47:30;;;;;;;10.88;5.18;;;9.60;99.90;;;;;;5025885;28;20410;-47
2023/05/05 04:49:57;;;;;;;8.90;5.03;;;9.70;99.90;;;;;;5036514;28;20124;-45
2023/05/05 04:52:24;;;;;;;11.70;6.30;;;9.80;99.90;;;;;;5049796;28;20516;-47
2023/05/05 04:54:51;;;;;;;12.63;5.15;;;9.90;99.90;;;;;;5023464;28;20045;-47
2023/05/05 04:57:17;;;;;;;10.95;5.47;;;10.10;99.90;;;;;;5017020;28;20067;-47
2023/05/05 04:59:44;;;;;;;11.77;5.32;;;10.60;99.90;;;;;;5041055;28;20037;-46
2023/05/05 05:02:11;;;;;;;10.45;5.97;;;10.30;99.90;;;;;;5026293;28;21537;-46
2023/05/05 05:04:38;;;;;;;12.77;5.15;;;10.50;99.90;;;;;;5033137;28;20064;-45
2023/05/05 05:07:05;;;;;;;8.68;5.03;;;10.60;99.90;;;;;;5031937;28;20045;-47
2023/05/05 05:09:32;;;;;;;11.43;5.47;;;10.70;99.90;;;;;;5026386;28;20096;-47
2023/05/05 05:11:59;;;;;;;14.40;5.82;;;10.80;99.90;;;;;;5029226;28;20048;-46
2023/05/05 05:14:27;;;;;;;7.20;4.93;;;10.90;99.90;;;;;;5031508;28;20041;-44
2023/05/05 05:16:54;;;;;;;;;;;11.00;99.90;;;;;;5027240;28;20055;-47
2023/05/05 05:19:22;;;;;;;9.15;5.68;;;11.10;99.90;;;;;;5044417;28;20389;-48
2023/05/05 05:21:49;;;;;;;6.85;4.72;;;11.20;99.90;;;;;;5022983;28;20044;-47
2023/05/05 05:24:16;;;;;;;7.35;4.47;;;11.30;99.90;;;;;;5020940;28;20041;-46
2023/05/05 05:26:43;;;;;;;8.52;4.07;;;11.30;99.90;;;;;;5030654;28;20118;-47
2023/05/05 05:29:10;;;;;;;6.68;4.43;;;11.30;99.90;;;;;;5030292;28;20071;-47
2023/05/05 05:31:38;;;;;;;7.60;5.00;;;11.30;99.90;;;;;;5024117;28;20037;-48
2023/05/05 05:34:05;;;;;;;7.22;4.32;;;11.30;99.90;;;;;;5026327;28;20100;-48
2023/05/05 05:36:32;;;;;;;8.88;4.47;;;11.40;99.90;;;;;;5020433;28;20041;-47
2023/05/05 05:38:59;;;;;;;9.32;5.05;;;11.40;99.90;;;;;;5042069;28;20103;-48
2023/05/05 05:41:27;;;;;;;7.88;4.80;;;11.30;99.90;;;;;;5024963;28;20044;-47
2023/05/05 05:43:54;;;;;;;9.63;3.83;;;11.30;99.90;;;;;;5025206;28;20052;-45
2023/05/05 05:46:20;;;;;;;6.03;4.78;;;11.30;99.90;;;;;;5021483;28;20045;-48
2023/05/05 05:48:48;;;;;;;8.43;4.90;;;11.30;99.90;;;;;;5020980;28;20049;-47
2023/05/05 05:51:14;;;;;;;10.32;4.65;;;11.30;99.90;;;;;;5020380;28;20064;-46
2023/05/05 05:53:41;;;;;;;8.73;4.90;;;11.40;99.90;;;;;;5035302;28;20075;-47
2023/05/05 05:56:08;;;;;;;10.30;4.82;;;11.40;99.90;;;;;;5050018;28;20452;-47
2023/05/05 05:58:35;;;;;;;8.73;4.95;;;11.50;99.90;;;;;;5030875;28;20119;-47
2023/05/05 06:01:03;;;;;;;9.57;4.90;;;11.60;99.90;;;;;;5030066;28;20457;-47
2023/05/05 06:03:30;;;;;;;9.10;4.80;;;11.70;99.90;;;;;;5044536;28;20045;-47
2023/05/05 06:05:58;;;;;;;8.82;4.40;;;11.80;99.90;;;;;;5052709;28;20051;-47
2023/05/05 06:08:25;;;;;;;9.32;4.85;;;11.90;99.90;;;;;;5051510;28;20056;-47
2023/05/05 06:10:54;;;;;;;8.45;4.93;;;11.80;99.90;;;;;;5034777;28;20417;-46
2023/05/05 06:13:20;;;;;;;8.63;4.55;;;11.80;99.90;;;;;;5053867;28;20124;-46
2023/05/05 06:15:49;;;;;;;10.70;5.32;;;11.80;99.90;;;;;;5035183;28;20064;-47
2023/05/05 06:18:16;;;;;;;;;;;11.90;99.90;;;;;;5034726;28;20039;-47
2023/05/05 06:20:44;;;;;;;8.40;4.30;;;12.10;99.90;;;;;;5033906;28;19925;-47
2023/05/05 06:23:13;;;;;;;6.88;4.43;;;12.20;99.90;;;;;;5035134;28;20037;-47
2023/05/05 06:25:44;;;;;;;9.93;4.45;;;12.40;99.90;;;;;;5033732;28;20195;-47
2023/05/05 06:28:11;;;;;;;8.10;4.43;;;12.50;99.90;;;;;;5054180;28;20061;-47
2023/05/05 06:30:38;;;;;;;6.65;4.40;;;12.60;99.90;;;;;;5050888;28;20079;-47
2023/05/05 06:33:04;;;;;;;7.57;4.38;;;12.70;99.90;;;;;;5054543;28;20421;-47
2023/05/05 06:35:31;;;;;;;6.40;4.50;;;12.70;99.90;;;;;;5045558;28;20052;-45
2023/05/05 06:37:58;;;;;;;8.77;4.65;;;12.80;99.90;;;;;;5053198;28;20509;-47
2023/05/05 06:40:25;;;;;;;11.38;4.68;;;12.90;99.90;;;;;;5033947;28;20442;-46
2023/05/05 06:42:51;;;;;;;8.73;4.60;;;13.10;99.90;;;;;;5046455;28;20072;-47
2023/05/05 06:45:23;;;;;;;5.55;4.07;;;13.30;99.90;;;;;;5043303;28;20152;-47
2023/05/05 06:47:51;;;;;;;6.70;4.35;;;13.50;99.90;;;;;;5053247;28;20052;-48
2023/05/05 06:50:18;;;;;;;10.73;4.63;;;13.60;99.90;;;;;;5045559;28;20501;-46
2023/05/05 06:52:45;;;;;;;7.05;4.57;;;13.90;99.90;;;;;;5052527;28;20102;-47
2023/05/05 06:55:12;;;;;;;7.47;4.72;;;14.00;99.90;;;;;;5052688;28;20072;-47
2023/05/05 06:57:38;;;;;;;10.57;4.60;;;13.90;99.90;;;;;;5044959;28;20045;-47
2023/05/05 07:00:08;;;;;;;8.27;4.35;;;13.90;99.90;;;;;;5051049;28;20036;-46
2023/05/05 07:02:35;;;;;;;5.55;4.00;;;13.90;99.90;;;;;;5047859;28;20045;-47
2023/05/05 07:05:03;;;;;;;6.47;3.75;;;14.00;99.90;;;;;;5041449;28;20115;-46
2023/05/05 07:07:31;;;;;;;8.73;3.85;;;14.30;99.90;;;;;;5052176;28;20516;-46
2023/05/05 07:09:58;;;;;;;5.80;3.38;;;14.60;99.90;;;;;;5059245;28;20049;-47
2023/05/05 07:12:24;;;;;;;6.03;3.75;;;15.10;99.90;;;;;;5051863;28;20041;-46
2023/05/05 07:14:51;;;;;;;5.20;3.95;;;15.50;99.90;;;;;;5039640;28;20464;-47
2023/05/05 07:17:18;;;;;;;6.13;4.00;;;15.50;99.90;;;;;;5051999;28;20056;-47
2023/05/05 07:19:45;;;;;;;4.80;3.58;;;15.40;99.90;;;;;;5048272;28;20095;-46
2023/05/05 07:22:11;;;;;;;8.20;4.22;;;15.50;99.90;;;;;;5045262;28;20086;-47
2023/05/05 07:24:38;;;;;;;5.88;3.65;;;15.60;99.90;;;;;;5034075;28;20073;-47
2023/05/05 07:27:06;;;;;;;8.10;4.40;;;15.40;99.90;;;;;;5052390;28;20098;-47
2023/05/05 07:29:32;;;;;;;6.97;3.83;;;15.40;99.90;;;;;;5029518;28;20597;-47
2023/05/05 07:31:59;;;;;;;5.18;3.40;;;15.40;99.90;;;;;;5050033;28;20049;-47
2023/05/05 07:34:26;;;;;;;7.88;3.75;;;15.40;99.90;;;;;;5051166;28;20044;-47
2023/05/05 07:36:55;;;;;;;11.65;4.22;;;15.70;99.90;;;;;;5052489;28;20830;-47
2023/05/05 07:39:21;;;;;;;4.95;3.88;;;16.20;99.90;;;;;;5043536;28;20481;-46
2023/05/05 07:41:48;;;;;;;6.30;3.65;;;16.30;99.90;;;;;;5034860;28;20682;-47
2023/05/05 07:44:15;;;;;;;4.63;3.58;;;16.40;99.90;;;;;;5051767;28;20041;-47
2023/05/05 07:46:42;;;;;;;5.32;4.13;;;16.70;99.90;;;;;;5052269;28;20455;-47
2023/05/05 07:49:08;;;;;;;8.25;4.80;;;16.90;99.90;;;;;;5046864;28;20037;-47
2023/05/05 07:51:35;;;;;;;7.00;3.70;;;17.10;99.90;;;;;;5051855;28;20041;-47
2023/05/05 07:54:02;;;;;;;5.32;3.28;;;17.20;99.90;;;;;;5038644;28;20042;-48
2023/05/05 07:56:29;;;;;;;7.85;3.63;;;17.00;99.90;;;;;;5052003;28;20044;-47
2023/05/05 07:58:56;;;;;;;5.93;4.10;;;17.20;99.90;;;;;;5049959;28;20033;-47
2023/05/05 08:01:22;;;;;;;6.88;3.40;;;17.40;99.90;;;;;;5045288;28;20485;-47
2023/05/05 08:03:49;;;;;;;5.28;3.63;;;17.60;99.90;;;;;;5042228;28;20110;-47
2023/05/05 08:06:20;;;;;;;4.93;3.85;;;17.70;99.90;;;;;;5050576;28;20076;-46
2023/05/05 08:08:48;;;;;;;5.75;3.70;;;17.50;99.90;;;;;;5049961;28;20037;-46
2023/05/05 08:11:15;;;;;;;5.97;3.78;;;17.50;99.90;;;;;;5048218;28;20075;-46
2023/05/05 08:13:43;;;;;;;4.13;3.05;;;17.80;99.90;;;;;;5051521;28;20076;-46
2023/05/05 08:16:10;;;;;;;5.72;3.40;;;18.20;99.90;;;;;;5050874;28;20048;-47
2023/05/05 08:18:37;;;;;;;;;;;18.20;99.90;;;;;;5034217;28;20052;-47
2023/05/05 08:21:05;;;;;;;6.72;3.35;;;18.30;99.90;;;;;;5035896;28;19920;-47
2023/05/05 08:23:35;;;;;;;6.15;3.50;;;18.40;99.90;;;;;;5050926;28;20037;-46
2023/05/05 08:26:03;;;;;;;8.68;3.53;;;18.50;99.90;;;;;;5045397;28;20455;-47
2023/05/05 08:28:30;;;;;;;5.07;3.60;;;18.40;99.90;;;;;;5051027;28;20064;-46
2023/05/05 08:30:57;;;;;;;8.40;3.90;;;18.20;99.90;;;;;;5049613;28;20128;-47
2023/05/05 08:33:24;;;;;;;8.52;3.92;;;18.00;99.90;;;;;;5051503;28;20045;-47
2023/05/05 08:35:51;;;;;;;5.68;3.60;;;17.80;99.90;;;;;;5046674;28;20076;-47
2023/05/05 08:38:18;;;;;;;5.28;4.32;;;17.60;99.90;;;;;;5031400;28;20045;-47
2023/05/05 08:40:44;;;;;;;7.18;4.13;;;17.40;99.90;;;;;;5037443;28;20582;-47
2023/05/05 08:43:11;;;;;;;9.75;3.97;;;17.20;99.90;;;;;;5051570;28;20068;-47
2023/05/05 08:45:41;;;;;;;7.60;3.60;;;17.00;99.90;;;;;;5050400;28;20512;-46
2023/05/05 08:48:09;;;;;;;4.40;3.15;;;16.80;99.90;;;;;;5050722;28;20559;-46
2023/05/05 08:50:38;;;;;;;8.13;3.88;;;16.70;99.90;;;;;;5046304;28;20041;-46
2023/05/05 08:53:15;;;;;;;6.90;3.58;;;16.60;99.90;;;;;;5050913;28;20052;-47
2023/05/05 09:00:02;;;;;;;10.43;3.95;;;16.80;99.90;;;;;;5107945;28;20026;-48
2023/05/05 09:02:30;;;;;;;4.15;3.22;;;17.00;99.90;;;;;;5102782;28;20089;-48
2023/05/05 09:04:56;;;;;;;;;;;17.20;99.90;;;;;;5111026;27;20044;-48
2023/05/05 09:07:23;;;;;;;9.43;4.00;;;17.40;99.90;;;;;;5130664;27;19974;-48
2023/05/05 09:09:50;;;;;;;6.10;3.70;;;17.70;99.90;;;;;;5121775;27;20067;-49
2023/05/05 09:12:17;;;;;;;4.88;3.53;;;17.90;99.90;;;;;;5103999;27;20051;-49
2023/05/05 09:14:45;;;;;;;8.98;3.80;;;18.00;99.90;;;;;;5131686;27;20039;-48
2023/05/05 09:17:25;;;;;;;12.05;3.75;;;18.10;99.90;;;;;;5111341;27;20397;-48
2023/05/05 09:20:08;;;;;;;8.75;4.00;;;18.40;99.90;;;;;;5123595;27;20050;-48
2023/05/05 09:22:43;;;;;;;5.50;3.25;;;18.60;99.90;;;;;;5122748;27;20553;-49
2023/05/05 09:25:12;;;;;;;9.80;3.88;;;18.80;99.90;;;;;;5114583;27;20065;-48
2023/05/05 09:27:47;;;;;;;6.65;4.07;;;19.10;99.90;;;;;;5123125;27;20067;-50
2023/05/05 09:30:16;;;;;;;7.80;3.97;;;19.10;99.90;;;;;;5127890;27;20073;-49
2023/05/05 09:32:53;;;;;;;7.97;3.90;;;19.10;99.90;;;;;;5109624;28;20067;-47
2023/05/05 09:35:21;;;;;;;4.53;3.90;;;19.30;99.90;;;;;;5111324;28;20067;-48
2023/05/05 09:37:48;;;;;;;10.25;4.20;;;19.20;99.90;;;;;;5105499;27;20031;-49
2023/05/05 09:40:17;;;;;;;5.85;3.85;;;19.20;99.90;;;;;;5111313;28;20100;-48
2023/05/05 09:42:44;;;;;;;6.90;3.72;;;19.10;99.90;;;;;;5126349;28;20465;-48
2023/05/05 09:45:17;;;;;;;8.15;4.35;;;19.10;99.90;;;;;;5131032;27;20070;-48
2023/05/05 09:47:45;;;;;;;9.98;4.43;;;18.80;99.90;;;;;;5122647;28;20039;-48
2023/05/05 09:50:14;;;;;;;5.20;3.92;;;18.60;99.90;;;;;;5122109;28;20049;-50
2023/05/05 09:52:42;;;;;;;5.68;4.10;;;18.70;99.90;;;;;;5129243;28;20484;-48
2023/05/05 09:55:17;;;;;;;8.77;3.90;;;19.10;99.90;;;;;;5113452;28;20104;-48
2023/05/05 09:57:46;;;;;;;8.05;3.67;;;19.30;99.90;;;;;;5131153;28;20091;-49
2023/05/05 10:00:13;;;;;;;4.63;3.15;;;19.50;99.90;;;;;;5126937;28;20066;-48
2023/05/05 10:02:40;;;;;;;5.35;3.40;;;19.70;99.90;;;;;;5110065;28;20035;-48
2023/05/05 10:05:13;;;;;;;9.48;3.88;;;19.80;99.90;;;;;;5110042;28;20118;-50
2023/05/05 10:07:42;;;;;;;10.05;3.60;;;20.00;99.90;;;;;;5110220;28;20511;-48
2023/05/05 10:10:11;;;;;;;6.30;3.67;;;20.00;99.90;;;;;;5109646;28;20050;-48
2023/05/05 10:12:38;;;;;;;4.63;3.38;;;20.10;99.90;;;;;;5109865;28;20069;-48
2023/05/05 10:15:06;;;;;;;;;;;20.30;99.90;;;;;;5110378;28;20404;-48
2023/05/05 10:17:45;;;;;;;4.25;3.50;;;20.50;99.90;;;;;;5119120;28;20449;-51
2023/05/05 10:20:35;;;;;;;6.00;4.10;;;20.60;99.90;;;;;;5108903;28;20518;-48
2023/05/05 10:23:05;;;;;;;5.72;3.03;;;20.70;99.90;;;;;;5120191;28;20046;-48
2023/05/05 10:25:44;;;;;;;3.80;3.28;;;20.60;99.20;;;;;;5129117;27;20096;-48
2023/05/05 10:28:18;;;;;;;5.20;3.10;;;20.70;99.90;;;;;;5130406;28;20407;-48
2023/05/05 10:30:50;;;;;;;9.18;3.22;;;21.00;99.50;;;;;;5123508;28;20114;-48
2023/05/05 10:33:21;;;;;;;3.85;2.90;;;21.20;99.90;;;;;;5122775;28;20126;-48
2023/05/05 10:35:52;;;;;;;4.80;3.60;;;21.20;99.00;;;;;;5130166;27;20118;-49
2023/05/05 10:38:20;;;;;;;4.95;3.60;;;21.30;99.40;;;;;;5111272;28;20043;-49
2023/05/05 10:40:47;;;;;;;6.38;3.38;;;21.40;98.10;;;;;;5109518;28;20044;-48
2023/05/05 10:43:14;;;;;;;3.63;2.95;;;21.50;98.40;;;;;;5110558;28;20066;-52
2023/05/05 10:45:42;;;;;;;4.72;2.50;;;21.60;99.60;;;;;;5109959;28;20092;-49
2023/05/05 10:48:18;;;;;;;6.53;2.78;;;21.60;97.40;;;;;;5123120;27;20051;-48
2023/05/05 10:50:50;;;;;;;4.13;2.63;;;21.80;98.60;;;;;;5134513;27;20159;-49
2023/05/05 10:53:29;;;;;;;8.85;3.03;;;21.90;96.40;;;;;;5123425;27;20067;-48
2023/05/05 10:56:01;;;;;;;6.10;2.88;;;21.90;97.50;;;;;;5113150;28;20043;-49
2023/05/05 10:58:32;;;;;;;3.45;2.90;;;22.20;96.60;;;;;;5112621;27;20147;-50
2023/05/05 11:01:09;;;;;;;5.18;2.83;;;22.40;98.00;;;;;;5113612;28;20053;-49
2023/05/05 11:03:36;;;;;;;4.22;2.70;;;22.60;97.90;;;;;;5119687;27;20035;-49
2023/05/05 11:06:03;;;;;;;5.13;2.70;;;22.50;95.90;;;;;;5113459;28;20484;-50
2023/05/05 11:08:31;;;;;;;4.22;2.20;;;22.70;94.50;;;;;;5112080;28;20071;-48
2023/05/05 11:10:59;;;;;;;5.70;2.30;;;22.90;94.30;;;;;;5113583;28;20075;-50
2023/05/05 11:13:26;;;;;;;4.43;2.40;;;23.10;92.70;;;;;;5117843;27;20039;-49
2023/05/05 11:15:54;;;;;;;4.90;3.10;;;23.30;92.50;;;;;;5125568;27;20031;-53
2023/05/05 11:18:37;;;;;;;3.60;2.70;;;23.60;93.30;;;;;;5133150;27;20070;-47
2023/05/05 11:21:06;;;;;;;2.97;2.50;;;23.60;93.20;;;;;;5113109;27;20062;-50
2023/05/05 11:23:33;;;;;;;3.22;2.63;;;23.70;93.00;;;;;;5121188;27;20043;-48
2023/05/05 11:26:00;;;;;;;4.97;3.10;;;23.80;93.30;;;;;;5130914;27;20043;-48
2023/05/05 11:28:29;;;;;;;4.85;2.70;;;23.80;93.40;;;;;;5123273;27;20044;-48
2023/05/05 11:30:59;;;;;;;3.35;2.15;;;23.70;93.40;;;;;;5127902;27;20088;-48
2023/05/05 11:33:27;;;;;;;4.90;2.63;;;23.50;92.60;;;;;;5129433;27;20105;-48
2023/05/05 11:36:07;;;;;;;4.57;2.40;;;23.60;92.40;;;;;;5130497;27;20566;-48
2023/05/05 11:39:17;;;;;;;3.53;2.38;;;23.80;91.70;;;;;;5128754;27;20504;-51
2023/05/05 11:42:17;;;;;;;3.78;2.22;;;24.10;91.10;;;;;;5130124;27;20071;-50
2023/05/05 11:44:44;;;;;;;5.15;2.45;;;24.30;90.90;;;;;;5119058;27;20077;-48
2023/05/05 11:47:10;;;;;;;;;;;24.50;90.50;;;;;;5133582;27;20067;-51
2023/05/05 11:49:38;;;;;;;3.30;2.42;;;24.70;90.70;;;;;;5127868;27;19925;-48
2023/05/05 11:52:06;;;;;;;3.78;2.95;;;24.80;90.00;;;;;;5131772;27;20062;-48
2023/05/05 11:54:40;;;;;;;7.10;3.38;;;24.90;90.60;;;;;;5128890;27;20028;-50
2023/05/05 11:57:07;;;;;;;5.53;2.55;;;25.00;90.70;;;;;;5131471;27;20083;-51
2023/05/05 11:59:47;;;;;;;2.28;2.00;;;25.10;90.00;;;;;;5120519;27;20056;-47
2023/05/05 12:02:16;;;;;;;2.70;2.50;;;25.20;91.00;;;;;;5129987;27;20399;-48
2023/05/05 12:04:43;;;;;;;5.50;2.60;;;25.20;86.80;;;;;;5129036;27;20044;-48
2023/05/05 12:07:14;;;;;;;;;;;25.10;85.50;;;;;;5124595;27;20061;-49
2023/05/05 12:09:46;;;;;;;5.75;2.60;;;25.20;89.60;;;;;;5119358;27;19923;-48
2023/05/05 12:12:13;;;;;;;7.07;2.50;;;25.30;85.40;;;;;;5131980;27;20067;-49
2023/05/05 12:14:50;;;;;;;4.22;2.45;;;25.40;88.20;;;;;;5125040;27;20491;-48
2023/05/05 12:17:21;;;;;;;4.70;2.60;;;25.30;85.80;;;;;;5118831;27;20066;-50
2023/05/05 12:19:50;;;;;;;2.90;2.55;;;25.40;85.20;;;;;;5110439;28;20051;-47
2023/05/05 12:22:24;;;;;;;3.58;2.72;;;25.30;85.10;;;;;;5112408;28;20036;-50
2023/05/05 12:25:00;;;;;;;2.70;2.50;;;25.20;83.70;;;;;;5111155;28;20132;-50
2023/05/05 12:27:28;;;;;;;3.63;2.30;;;25.30;85.40;;;;;;5114862;27;20445;-48
2023/05/05 12:29:56;;;;;;;3.00;2.40;;;25.60;85.60;;;;;;5110983;28;20308;-48
2023/05/05 12:32:24;;;;;;;3.10;2.17;;;25.90;86.00;;;;;;5111733;28;20046;-49
2023/05/05 12:34:53;;;;;;;2.88;2.15;;;26.00;85.80;;;;;;5111790;28;20538;-47
2023/05/05 12:37:21;;;;;;;3.58;2.50;;;26.00;86.40;;;;;;5114340;27;20040;-49
2023/05/05 12:39:49;;;;;;;4.05;2.40;;;26.00;82.90;;;;;;5114863;27;20572;-48
2023/05/05 12:42:16;;;;;;;2.67;2.28;;;25.70;85.60;;;;;;5110284;28;20047;-48
2023/05/05 12:44:43;;;;;;;5.70;2.58;;;25.70;86.50;;;;;;5111645;28;20449;-49
2023/05/05 12:47:11;;;;;;;4.75;2.53;;;25.80;85.70;;;;;;5114118;27;20589;-49
2023/05/05 12:49:45;;;;;;;5.03;2.70;;;25.90;83.10;;;;;;5119908;27;20564;-49
2023/05/05 12:52:13;;;;;;;3.15;2.50;;;26.00;85.80;;;;;;5110206;28;20071;-49
2023/05/05 12:54:57;;;;;;;3.38;2.42;;;26.10;86.00;;;;;;5111350;28;20044;-49
2023/05/05 12:57:24;;;;;;;3.20;2.38;;;26.20;82.70;;;;;;5110387;28;20089;-50
2023/05/05 12:59:51;;;;;;;;;;;26.20;80.00;;;;;;5111268;28;20126;-49
2023/05/05 13:02:19;;;;;;;4.23;2.63;;;26.30;80.90;;;;;;5111357;28;19968;-49
2023/05/05 13:04:51;;;;;;;2.65;2.10;;;26.50;83.30;;;;;;5110705;27;20138;-47
2023/05/05 13:07:19;;;;;;;3.33;2.63;;;26.40;83.20;;;;;;5115115;27;20035;-48